To NAV CANADA Home Page Login to a new session Search on AWWS site Feedback and Comments Disclaimer Vers la page française équivalente Tips FAQ What's new on the site To the Forecasts and Observations / NOTAM section To "File a Flight Plan" website Publications and other links Update of the User's profile FIC Telephone Numbers My Weather Data Folder Route Weather Data Regional Weather Data Local Weather Data To the Forecasts and Observations / NOTAM section
Request Generated 05/01/2016 at 13:41:36 UTC . Weather information available at that time is displayed.

METAR/TAF

ROBERVAL/QC    

METAR CYRJ 011300Z 34005KT 310V030 40SM FEW090 FEW220 04/M05 A3026
RMK AC1CI1 AC TR SLP259=
METAR CYRJ 011200Z 33005KT 40SM FEW090 03/M05 A3027 RMK AC1 SLP259=
METAR CYRJ 011100Z 32005KT 40SM FEW090 02/M05 A3027 RMK AC1 SLP259=

TAF CYRJ 011338Z 0114/0202 34005KT P6SM FEW090 SCT220
RMK NXT FCST BY 012000Z=
Your time UTC time
Weather data provided by Environment Canada and NAV CANADA